Clovis Municipal Airport


Codes: KCVN/CVN
Name: Clovis Municipal Airport
City: Clovis
Country: United States
Elevation: 4216 ft.

Photos at Clovis Municipal Airport


   Photos courtesy of SpottingLog. You can add your own sightings and photos by signing up for a free trial today.



No photos found.

Weather at Clovis Municipal Airport


Time (UTC)DescriptionTempratureWindCloud coverageVisibilityPressureHumidity
21-Jun-2024 12:00Overcast Clouds19°C9 mph, S100%10000m1025hPa97%
21-Jun-2024 15:00Overcast Clouds20°C16 mph, S100%10000m1024hPa90%
21-Jun-2024 18:00Light Rain20°C13 mph, SW100%10000m1022hPa85%
21-Jun-2024 21:00Light Rain25°C13 mph, SW99%10000m1018hPa58%
22-Jun-2024 00:00Overcast Clouds26°C11 mph, S95%10000m1015hPa53%
22-Jun-2024 03:00Overcast Clouds24°C13 mph, S100%10000m1015hPa54%
22-Jun-2024 06:00Overcast Clouds21°C9 mph, S100%10000m1017hPa63%
22-Jun-2024 09:00Scattered Clouds21°C13 mph, SW41%10000m1017hPa70%
22-Jun-2024 12:00Scattered Clouds19°C9 mph, SW38%10000m1017hPa76%
22-Jun-2024 15:00Broken Clouds24°C18 mph, SW60%10000m1016hPa54%
22-Jun-2024 18:00Broken Clouds30°C16 mph, SW54%10000m1014hPa36%
22-Jun-2024 21:00Broken Clouds33°C11 mph, SW82%10000m1011hPa30%
23-Jun-2024 00:00Broken Clouds32°C13 mph, S69%10000m1009hPa30%
23-Jun-2024 03:00Broken Clouds27°C11 mph, S53%10000m1011hPa37%
23-Jun-2024 06:00Broken Clouds26°C13 mph, S64%10000m1013hPa34%
23-Jun-2024 09:00Broken Clouds24°C11 mph, SW56%10000m1014hPa44%
23-Jun-2024 12:00Scattered Clouds22°C9 mph, SW36%10000m1015hPa56%
23-Jun-2024 15:00Few Clouds27°C11 mph, SW13%10000m1015hPa43%
23-Jun-2024 18:00Clear Sky32°C7 mph, S8%10000m1013hPa29%
23-Jun-2024 21:00Clear Sky34°C13 mph, SE9%10000m1010hPa24%
24-Jun-2024 00:00Clear Sky33°C13 mph, S5%10000m1008hPa24%
24-Jun-2024 03:00Clear Sky27°C11 mph, SE7%10000m1010hPa31%
24-Jun-2024 06:00Scattered Clouds25°C7 mph, S33%10000m1011hPa38%
24-Jun-2024 09:00Clear Sky24°C9 mph, SW7%10000m1011hPa51%
24-Jun-2024 12:00Clear Sky23°C9 mph, SW5%10000m1011hPa58%
24-Jun-2024 15:00Scattered Clouds28°C13 mph, SW44%10000m1011hPa46%
24-Jun-2024 18:00Broken Clouds33°C13 mph, SW60%10000m1009hPa29%
24-Jun-2024 21:00Scattered Clouds36°C13 mph, SW45%10000m1005hPa23%
25-Jun-2024 00:00Broken Clouds32°C22 mph, SW63%10000m1004hPa32%
25-Jun-2024 03:00Light Rain26°C9 mph, SW99%10000m1006hPa52%
25-Jun-2024 06:00Light Rain25°C9 mph, SW96%10000m1007hPa47%
25-Jun-2024 09:00Broken Clouds25°C16 mph, SW72%10000m1008hPa57%
25-Jun-2024 12:00Scattered Clouds23°C11 mph, SW47%10000m1008hPa64%
25-Jun-2024 15:00Clear Sky29°C13 mph, SW0%10000m1008hPa41%
25-Jun-2024 18:00Clear Sky35°C9 mph, W0%10000m1006hPa25%
25-Jun-2024 21:00Clear Sky37°C11 mph, NE4%10000m1005hPa20%
26-Jun-2024 00:00Few Clouds36°C11 mph, NE17%10000m1004hPa20%
26-Jun-2024 03:00Clear Sky30°C7 mph, NE6%10000m1006hPa27%
26-Jun-2024 06:00Scattered Clouds27°C7 mph, S49%10000m1010hPa47%
26-Jun-2024 09:00Scattered Clouds25°C4 mph, SE37%10000m1011hPa62%